createdAt,value
2018-12-29T00:02:44.840Z,6.80
2018-12-29T00:06:02.081Z,6.81
2018-12-29T00:09:09.825Z,6.76
2018-12-29T00:12:16.315Z,6.75
2018-12-29T00:15:33.489Z,6.79
2018-12-29T00:18:50.020Z,6.79
2018-12-29T00:21:57.271Z,6.74
2018-12-29T00:25:04.688Z,6.74
2018-12-29T00:28:21.462Z,6.75
2018-12-29T00:31:38.269Z,6.76
2018-12-29T00:34:55.556Z,6.75
2018-12-29T00:38:12.105Z,6.74
2018-12-29T00:41:19.380Z,6.68
2018-12-29T00:44:27.512Z,6.68
2018-12-29T00:47:35.088Z,6.69
2018-12-29T00:50:42.395Z,6.68
2018-12-29T00:53:49.537Z,6.67
2018-12-29T00:56:56.748Z,6.67
2018-12-29T01:00:04.720Z,6.65
2018-12-29T01:03:12.281Z,6.64
2018-12-29T01:06:19.498Z,6.65
2018-12-29T01:09:26.740Z,6.65
2018-12-29T01:12:34.226Z,6.66
2018-12-29T01:15:41.434Z,6.64
2018-12-29T01:18:48.593Z,6.63
2018-12-29T01:21:55.839Z,6.63
2018-12-29T01:25:02.969Z,6.63
2018-12-29T01:28:10.213Z,6.60
2018-12-29T01:31:17.517Z,6.62
2018-12-29T01:34:24.782Z,6.60
2018-12-29T01:37:30.414Z,6.60
2018-12-29T01:40:37.648Z,6.59
2018-12-29T01:43:44.892Z,6.58
2018-12-29T01:46:52.201Z,6.59
2018-12-29T01:50:09.146Z,6.63
2018-12-29T01:53:25.987Z,6.64
2018-12-29T01:56:33.123Z,6.59
2018-12-29T01:59:38.645Z,6.58
2018-12-29T02:02:45.985Z,6.57
2018-12-29T02:05:53.131Z,6.58
2018-12-29T02:09:00.462Z,6.57
2018-12-29T02:12:07.666Z,6.56
2018-12-29T02:15:24.965Z,6.59
2018-12-29T02:18:32.294Z,6.54
2018-12-29T02:21:39.692Z,6.54
2018-12-29T02:24:46.829Z,6.55
2018-12-29T02:27:54.166Z,6.55
2018-12-29T02:31:01.362Z,6.54
2018-12-29T02:34:08.622Z,6.54
2018-12-29T02:37:15.842Z,6.53
2018-12-29T02:40:23.145Z,6.53
2018-12-29T02:43:30.629Z,6.54
2018-12-29T02:46:37.859Z,6.53
2018-12-29T02:49:45.088Z,6.53
2018-12-29T02:52:52.486Z,6.52
2018-12-29T02:55:59.725Z,6.52
2018-12-29T02:59:06.954Z,6.52
2018-12-29T03:02:14.181Z,6.51
2018-12-29T03:05:31.000Z,6.55
2018-12-29T03:08:38.227Z,6.51
2018-12-29T03:11:45.739Z,6.51
2018-12-29T03:15:02.295Z,6.56
2018-12-29T03:18:07.895Z,6.51
2018-12-29T03:21:24.900Z,6.55
2018-12-29T03:24:42.365Z,6.56
2018-12-29T03:27:49.666Z,6.52
2018-12-29T03:30:57.119Z,6.52
2018-12-29T03:34:14.692Z,6.56
2018-12-29T03:37:21.889Z,6.52
2018-12-29T03:40:29.397Z,6.53
2018-12-29T03:43:45.926Z,6.57
2018-12-29T03:47:02.890Z,6.57
2018-12-29T03:50:10.167Z,6.53
2018-12-29T03:53:26.929Z,6.57
2018-12-29T03:56:34.169Z,6.53
2018-12-29T03:59:51.040Z,6.57
2018-12-29T04:02:58.269Z,6.54
2018-12-29T04:06:05.526Z,6.55
2018-12-29T04:09:33.289Z,6.55
2018-12-29T04:12:42.431Z,6.55
2018-12-29T04:15:59.228Z,6.59
2018-12-29T04:19:16.102Z,6.60
2018-12-29T04:22:32.981Z,6.60
2018-12-29T04:25:40.216Z,6.58
2018-12-29T04:28:47.356Z,6.57
2018-12-29T04:32:04.737Z,6.63
2018-12-29T04:35:21.313Z,6.63
2018-12-29T04:38:38.141Z,6.64
2018-12-29T04:41:45.465Z,6.59
2018-12-29T04:44:53.055Z,6.59
2018-12-29T04:48:11.809Z,6.65
2018-12-29T04:51:28.378Z,6.66
2018-12-29T04:54:35.622Z,6.63
2018-12-29T04:57:42.867Z,6.62
2018-12-29T05:00:59.720Z,6.67
2018-12-29T05:04:06.857Z,6.64
2018-12-29T05:07:14.085Z,6.65
2018-12-29T05:10:21.290Z,6.65
2018-12-29T05:13:28.448Z,6.66
2018-12-29T05:16:35.986Z,6.65
2018-12-29T05:19:52.638Z,6.72
2018-12-29T05:23:00.019Z,6.67
2018-12-29T05:26:16.755Z,6.71
2018-12-29T05:29:33.731Z,6.73
2018-12-29T05:32:40.961Z,6.68
2018-12-29T05:36:03.827Z,6.73
2018-12-29T05:39:11.065Z,6.69
2018-12-29T05:42:18.222Z,6.69
2018-12-29T05:45:25.533Z,6.70
2018-12-29T05:48:32.657Z,6.72
2018-12-29T05:51:39.912Z,6.73
2018-12-29T05:54:47.046Z,6.72
2018-12-29T05:57:54.318Z,6.72
2018-12-29T06:01:11.462Z,6.79
2018-12-29T06:04:28.106Z,6.79
2018-12-29T06:07:35.238Z,6.76
2018-12-29T06:10:42.471Z,6.75
2018-12-29T06:13:59.402Z,6.82
2018-12-29T06:17:06.929Z,6.78
2018-12-29T06:20:23.618Z,6.81
2018-12-29T06:23:29.721Z,6.79
2018-12-29T06:26:36.951Z,6.81
2018-12-29T06:29:44.511Z,6.80
2018-12-29T06:32:52.732Z,6.81
2018-12-29T06:36:09.266Z,6.85
2018-12-29T06:39:16.513Z,6.82
2018-12-29T06:42:23.746Z,6.82
2018-12-29T06:45:40.592Z,6.87
2018-12-29T06:48:47.821Z,6.84
2018-12-29T06:52:04.809Z,6.87
2018-12-29T06:55:11.935Z,6.86
2018-12-29T06:58:30.353Z,6.90
2018-12-29T07:01:37.553Z,6.86
2018-12-29T07:04:44.790Z,6.87
2018-12-29T07:07:51.990Z,6.87
2018-12-29T07:11:08.882Z,6.91
2018-12-29T07:14:25.797Z,6.92
2018-12-29T07:17:43.078Z,6.93
2018-12-29T07:20:59.733Z,6.93
2018-12-29T07:24:16.908Z,6.94
2018-12-29T07:27:39.515Z,6.93
2018-12-29T07:30:47.044Z,6.90
2018-12-29T07:34:03.728Z,6.96
2018-12-29T07:37:10.854Z,6.92
2018-12-29T07:40:18.077Z,6.93
2018-12-29T07:43:25.209Z,6.92
2018-12-29T07:46:32.722Z,6.93
2018-12-29T07:49:49.643Z,6.98
2018-12-29T07:52:56.154Z,6.94
2018-12-29T07:56:03.397Z,6.94
2018-12-29T07:59:10.660Z,6.95
2018-12-29T08:02:17.893Z,6.96
2018-12-29T08:05:25.133Z,6.96
2018-12-29T08:08:32.395Z,6.98
2018-12-29T08:11:39.638Z,6.98
2018-12-29T08:14:46.981Z,6.99
2018-12-29T08:17:54.489Z,7.00
2018-12-29T08:21:11.106Z,7.05
2018-12-29T08:24:18.239Z,7.02
2018-12-29T08:27:25.548Z,7.03
2018-12-29T08:30:32.674Z,7.03
2018-12-29T08:33:39.893Z,7.03
2018-12-29T08:36:47.131Z,7.03
2018-12-29T08:39:54.435Z,7.04
2018-12-29T08:43:11.297Z,7.08
2018-12-29T08:46:28.157Z,7.09
2018-12-29T08:49:35.395Z,7.06
2018-12-29T08:52:42.636Z,7.07
2018-12-29T08:55:59.490Z,7.12
2018-12-29T08:59:06.942Z,7.08
2018-12-29T09:02:23.615Z,7.12
2018-12-29T09:05:30.914Z,7.10
2018-12-29T09:08:47.731Z,7.14
2018-12-29T09:11:54.877Z,7.09
2018-12-29T09:15:02.025Z,7.11
2018-12-29T09:18:09.228Z,7.13
2018-12-29T09:21:16.453Z,7.13
2018-12-29T09:24:23.687Z,7.13
2018-12-29T09:27:31.302Z,7.16
2018-12-29T09:30:48.022Z,7.20
2018-12-29T09:34:04.871Z,7.20
2018-12-29T09:37:12.058Z,7.15
2018-12-29T09:40:19.355Z,7.16
2018-12-29T09:43:36.457Z,7.23
2018-12-29T09:46:54.970Z,7.22
2018-12-29T09:50:11.615Z,7.22
2018-12-29T09:53:18.757Z,7.18
2018-12-29T09:56:26.123Z,7.19
2018-12-29T09:59:33.323Z,7.19
2018-12-29T10:02:50.117Z,7.23
2018-12-29T10:05:57.577Z,7.19
2018-12-29T10:09:20.302Z,7.24
2018-12-29T10:12:27.476Z,7.21
2018-12-29T10:15:34.698Z,7.22
2018-12-29T10:18:41.865Z,7.23
2018-12-29T10:21:48.993Z,7.23
2018-12-29T10:24:56.238Z,7.25
2018-12-29T10:28:03.576Z,7.25
2018-12-29T10:31:20.508Z,7.32
2018-12-29T10:34:27.740Z,7.28
2018-12-29T10:37:44.558Z,7.34
2018-12-29T10:41:01.591Z,7.34
2018-12-29T10:44:18.417Z,7.35
2018-12-29T10:47:25.666Z,7.32
2018-12-29T10:50:32.911Z,7.32
2018-12-29T10:53:49.738Z,7.37
2018-12-29T10:56:56.882Z,7.34
2018-12-29T11:00:04.445Z,7.34
2018-12-29T11:03:21.111Z,7.39
2018-12-29T11:06:28.408Z,7.36
2018-12-29T11:09:35.535Z,7.37
2018-12-29T11:12:42.687Z,7.38
2018-12-29T11:15:49.862Z,7.38
2018-12-29T11:18:57.333Z,7.39
2018-12-29T11:22:14.053Z,7.44
2018-12-29T11:25:21.561Z,7.41
2018-12-29T11:28:38.237Z,7.45
2018-12-29T11:31:45.365Z,7.41
2018-12-29T11:34:54.760Z,7.42
2018-12-29T12:13:35.294Z,7.40
2018-12-29T12:16:42.262Z,7.39
2018-12-29T12:19:49.811Z,7.39
2018-12-29T12:22:57.298Z,7.38
2018-12-29T12:26:04.946Z,7.39
2018-12-29T14:33:14.825Z,7.30
2018-12-29T14:37:16.527Z,7.31
2018-12-29T14:41:09.983Z,7.30
2018-12-29T14:44:17.401Z,7.28
2018-12-29T14:47:23.310Z,7.28
2018-12-29T14:50:30.906Z,7.27
2018-12-29T14:53:38.636Z,7.27
2018-12-29T14:57:02.119Z,7.26
2018-12-29T15:00:09.608Z,7.27
2018-12-29T15:03:42.794Z,7.25
2018-12-29T15:06:46.439Z,7.24
2018-12-29T15:10:43.593Z,7.24
2018-12-29T15:15:21.959Z,7.25
2018-12-29T15:19:39.449Z,7.23
2018-12-29T15:23:18.151Z,7.22
2018-12-29T15:26:24.539Z,7.22
2018-12-29T15:40:23.127Z,7.23
2018-12-29T15:43:29.185Z,7.19
2018-12-29T15:46:36.655Z,7.18
2018-12-29T15:49:44.026Z,7.16
2018-12-29T15:52:51.443Z,7.15
2018-12-29T17:08:04.051Z,7.02
2018-12-29T17:11:11.436Z,7.02
